Time;durP1;ratioP1;P1;durP2;ratioP2;P2;SDS_P1;SDS_P2;PMS_P1;PMS_P2;Temp;Humidity;BMP_temperature;BMP_pressure;BME280_temperature;BME280_humidity;BME280_pressure;Samples;Min_cycle;Max_cycle;Signal;HPM_P1;HPM_P2
2023/04/23 00:01:04;;;;;;;94.22;41.00;;;;;;;5.24;100.00;100818.03;5035199;28;20032;-73
2023/04/23 00:03:32;;;;;;;89.50;40.65;;;;;;;5.26;100.00;100810.00;5034766;28;20037;-74
2023/04/23 00:05:58;;;;;;;97.07;43.13;;;;;;;5.28;100.00;100805.44;5035509;28;20128;-74
2023/04/23 00:08:24;;;;;;;89.25;41.50;;;;;;;5.29;100.00;100807.97;5035718;28;20072;-74
2023/04/23 00:10:50;;;;;;;88.30;41.58;;;;;;;5.32;100.00;100799.03;5033261;28;20475;-74
2023/04/23 00:13:16;;;;;;;99.20;42.60;;;;;;;5.37;100.00;100796.91;5033645;28;20037;-74
2023/04/23 00:15:41;;;;;;;106.22;46.38;;;;;;;5.39;100.00;100795.00;5034427;28;20033;-74
2023/04/23 00:18:07;;;;;;;99.75;42.08;;;;;;;5.42;100.00;100794.81;5034808;28;20045;-74
2023/04/23 00:20:34;;;;;;;103.47;44.17;;;;;;;5.47;100.00;100791.84;5034518;28;20083;-74
2023/04/23 00:23:00;;;;;;;103.00;43.80;;;;;;;5.53;100.00;100790.56;5034662;28;20340;-74
2023/04/23 00:25:25;;;;;;;104.82;44.92;;;;;;;5.58;100.00;100791.06;5034460;28;20065;-74
2023/04/23 00:27:51;;;;;;;110.85;45.55;;;;;;;5.69;100.00;100783.25;5034164;28;20094;-74
2023/04/23 00:30:17;;;;;;;106.25;46.45;;;;;;;5.77;100.00;100782.72;5034832;28;20060;-74
2023/04/23 00:32:43;;;;;;;106.13;46.60;;;;;;;5.84;100.00;100783.97;5034638;28;20034;-74
2023/04/23 00:35:09;;;;;;;91.28;43.70;;;;;;;5.89;100.00;100781.00;5034415;28;20419;-73
2023/04/23 00:37:34;;;;;;;84.95;39.72;;;;;;;5.88;100.00;100774.00;5033337;28;20033;-74
2023/04/23 00:40:01;;;;;;;90.50;40.75;;;;;;;5.88;100.00;100774.88;5033885;28;20044;-74
2023/04/23 00:42:27;;;;;;;84.45;41.05;;;;;;;5.79;100.00;100779.00;5034070;28;20061;-75
2023/04/23 00:44:52;;;;;;;89.50;41.92;;;;;;;5.72;100.00;100772.47;5034053;28;20041;-74
2023/04/23 00:47:19;;;;;;;83.10;40.03;;;;;;;5.60;100.00;100766.28;5034094;28;20434;-74
2023/04/23 00:49:45;;;;;;;88.63;41.58;;;;;;;5.51;100.00;100758.16;5033853;28;20114;-74
2023/04/23 00:52:10;;;;;;;89.43;41.10;;;;;;;5.47;100.00;100762.81;5032402;28;20510;-74
2023/04/23 00:54:36;;;;;;;94.30;41.63;;;;;;;5.44;100.00;100758.59;5033616;28;20036;-74
2023/04/23 00:57:02;;;;;;;94.15;42.75;;;;;;;5.46;100.00;100758.47;5034215;28;20116;-74
2023/04/23 00:59:29;;;;;;;92.97;42.72;;;;;;;5.49;100.00;100752.97;5033599;28;20033;-75
2023/04/23 01:01:55;;;;;;;92.35;42.95;;;;;;;5.51;100.00;100760.78;5033413;28;20103;-74
2023/04/23 01:04:22;;;;;;;97.10;43.28;;;;;;;5.51;100.00;100751.09;5034257;28;20439;-74
2023/04/23 01:06:48;;;;;;;95.00;41.90;;;;;;;5.53;100.00;100754.44;5033754;28;20029;-74
2023/04/23 01:09:14;;;;;;;100.78;43.67;;;;;;;5.55;100.00;100752.53;5034007;28;20032;-74
2023/04/23 01:11:42;;;;;;;106.35;44.33;;;;;;;5.56;100.00;100743.69;5033805;28;20041;-74
2023/04/23 01:14:09;;;;;;;100.78;45.35;;;;;;;5.58;100.00;100744.44;5033654;28;20029;-74
2023/04/23 01:16:37;;;;;;;110.38;47.58;;;;;;;5.61;100.00;100752.13;5033675;28;20116;-74
2023/04/23 01:19:04;;;;;;;121.97;48.22;;;;;;;5.66;100.00;100746.53;5032333;28;20426;-74
2023/04/23 01:21:31;;;;;;;115.95;45.97;;;;;;;5.70;100.00;100734.75;5032050;28;20100;-75
2023/04/23 01:23:57;;;;;;;120.30;47.97;;;;;;;5.77;100.00;100745.75;5033189;28;20048;-74
2023/04/23 01:26:24;;;;;;;125.60;49.97;;;;;;;5.85;100.00;100735.44;5033124;28;20029;-74
2023/04/23 01:28:51;;;;;;;138.00;51.75;;;;;;;5.96;100.00;100732.88;5033645;28;20455;-74
2023/04/23 01:31:17;;;;;;;126.50;50.92;;;;;;;6.06;100.00;100734.88;5033194;28;20112;-74
2023/04/23 01:33:43;;;;;;;111.95;47.47;;;;;;;6.12;100.00;100737.06;5033380;28;20506;-74
2023/04/23 01:36:10;;;;;;;120.30;49.05;;;;;;;6.15;100.00;100742.13;5032951;28;20033;-74
2023/04/23 01:38:37;;;;;;;109.57;47.97;;;;;;;6.17;100.00;100727.03;5031156;28;20037;-74
2023/04/23 01:41:03;;;;;;;111.25;47.25;;;;;;;6.21;100.00;100725.00;5032681;28;20120;-73
2023/04/23 01:43:30;;;;;;;116.70;47.53;;;;;;;6.22;100.00;100724.88;5032813;28;20124;-74
2023/04/23 01:45:56;;;;;;;115.82;48.92;;;;;;;6.25;100.00;100729.09;5031796;28;20313;-74
2023/04/23 01:48:22;;;;;;;109.63;47.03;;;;;;;6.27;100.00;100730.69;5033125;28;20366;-74
2023/04/23 01:50:49;;;;;;;122.70;50.20;;;;;;;6.29;100.00;100735.84;5032251;28;20033;-74
2023/04/23 01:53:15;;;;;;;113.03;46.72;;;;;;;6.30;100.00;100729.59;5032555;28;20399;-74
2023/04/23 01:55:42;;;;;;;123.63;49.00;;;;;;;6.28;100.00;100732.34;5032849;28;20164;-73
2023/04/23 01:58:07;;;;;;;127.03;49.15;;;;;;;6.31;100.00;100736.56;5032767;28;20052;-73
2023/04/23 02:00:32;;;;;;;124.50;49.83;;;;;;;6.31;100.00;100737.41;5031363;28;20026;-74
2023/04/23 02:02:58;;;;;;;110.10;45.72;;;;;;;6.31;100.00;100724.19;5032412;28;20045;-74
2023/04/23 02:05:24;;;;;;;107.18;45.92;;;;;;;6.32;100.00;100722.41;5032580;28;20405;-74
2023/04/23 02:07:50;;;;;;;114.13;47.22;;;;;;;6.33;100.00;100721.47;5032861;28;20061;-74
2023/04/23 02:10:17;;;;;;;110.07;45.22;;;;;;;6.33;100.00;100711.72;5032542;28;20040;-74
2023/04/23 02:12:44;;;;;;;111.55;46.90;;;;;;;6.35;100.00;100708.97;5032688;28;20033;-74
2023/04/23 02:15:10;;;;;;;112.93;45.70;;;;;;;6.38;100.00;100705.25;5032571;28;20537;-73
2023/04/23 02:17:38;;;;;;;101.75;42.85;;;;;;;6.38;100.00;100708.72;5032257;28;20057;-73
2023/04/23 02:20:05;;;;;;;97.47;43.13;;;;;;;6.40;100.00;100716.53;5032471;28;20160;-73
2023/04/23 02:22:31;;;;;;;102.72;43.45;;;;;;;6.38;100.00;100719.31;5032645;28;20108;-72
2023/04/23 02:24:57;;;;;;;88.25;40.67;;;;;;;6.35;100.00;100716.88;5032461;28;20076;-73
2023/04/23 02:27:22;;;;;;;93.13;42.33;;;;;;;6.34;100.00;100718.69;5032307;28;20487;-73
2023/04/23 02:29:48;;;;;;;90.00;39.50;;;;;;;6.35;100.00;100715.06;5032676;28;20033;-74
2023/04/23 02:32:14;;;;;;;82.75;38.92;;;;;;;6.34;100.00;100720.47;5032378;28;20025;-73
2023/04/23 02:34:40;;;;;;;76.20;35.88;;;;;;;6.34;100.00;100717.84;5032012;28;20403;-74
2023/04/23 02:37:05;;;;;;;89.03;39.00;;;;;;;6.38;100.00;100713.19;5031087;28;20160;-73
2023/04/23 02:39:31;;;;;;;73.82;35.30;;;;;;;6.36;100.00;100713.31;5032466;28;20033;-73
2023/04/23 02:41:57;;;;;;;70.82;35.70;;;;;;;6.32;100.00;100717.13;5032554;28;20309;-74
2023/04/23 02:44:25;;;;;;;68.45;34.97;;;;;;;6.26;100.00;100718.41;5032271;28;20057;-73
2023/04/23 02:46:51;;;;;;;72.10;35.35;;;;;;;6.20;100.00;100718.03;5030955;28;20464;-73
2023/04/23 02:49:20;;;;;;;78.90;36.42;;;;;;;6.15;100.00;100721.00;5032288;28;20041;-73
2023/04/23 02:51:46;;;;;;;65.90;34.45;;;;;;;6.12;100.00;100715.94;5032054;28;20052;-76
2023/04/23 02:54:12;;;;;;;67.15;33.38;;;;;;;6.08;100.00;100714.50;5032636;28;20222;-73
2023/04/23 02:56:38;;;;;;;72.00;34.42;;;;;;;5.99;100.00;100708.94;5032050;28;20433;-73
2023/04/23 02:59:03;;;;;;;67.68;33.65;;;;;;;5.96;100.00;100703.00;5032139;28;20503;-73
2023/04/23 03:01:29;;;;;;;71.35;33.97;;;;;;;5.93;100.00;100704.06;5033800;28;20033;-74
2023/04/23 03:03:54;;;;;;;59.97;31.27;;;;;;;5.91;100.00;100703.34;5036270;28;20352;-74
2023/04/23 03:06:20;;;;;;;67.82;33.85;;;;;;;5.87;100.00;100704.53;5035665;28;20038;-73
2023/04/23 03:08:45;;;;;;;69.70;33.20;;;;;;;5.83;100.00;100703.88;5034911;28;20120;-73
2023/04/23 03:11:10;;;;;;;67.30;34.13;;;;;;;5.81;100.00;100697.06;5034642;28;20034;-73
2023/04/23 03:13:36;;;;;;;60.20;31.75;;;;;;;5.79;100.00;100706.84;5035253;28;20459;-73
2023/04/23 03:16:01;;;;;;;75.32;35.25;;;;;;;5.77;100.00;100698.22;5035188;28;20033;-73
2023/04/23 03:18:27;;;;;;;67.50;33.95;;;;;;;5.80;100.00;100690.91;5035571;28;20036;-73
2023/04/23 03:20:52;;;;;;;64.55;32.28;;;;;;;5.84;100.00;100688.91;5035461;28;20116;-74
2023/04/23 03:23:17;;;;;;;72.40;35.08;;;;;;;5.86;100.00;100691.44;5035482;28;20037;-73
2023/04/23 03:25:43;;;;;;;71.03;33.83;;;;;;;5.92;100.00;100688.34;5035521;28;20079;-74
2023/04/23 03:28:08;;;;;;;65.65;33.67;;;;;;;5.94;100.00;100692.56;5034010;28;20482;-73
2023/04/23 03:30:34;;;;;;;72.90;34.92;;;;;;;5.99;100.00;100695.72;5035375;28;20041;-73
2023/04/23 03:33:01;;;;;;;78.78;36.88;;;;;;;6.03;100.00;100701.63;5033952;28;20539;-73
2023/04/23 03:35:26;;;;;;;74.30;35.67;;;;;;;6.08;100.00;100702.13;5035413;28;20033;-73
2023/04/23 03:37:52;;;;;;;67.95;34.00;;;;;;;6.12;100.00;100698.31;5035235;28;20112;-74
2023/04/23 03:40:18;;;;;;;67.15;33.35;;;;;;;6.16;100.00;100694.47;5035332;28;20048;-73
2023/04/23 03:42:43;;;;;;;65.28;33.20;;;;;;;6.21;100.00;100691.50;5035516;28;20030;-73
2023/04/23 03:45:10;;;;;;;70.55;33.83;;;;;;;6.23;100.00;100686.94;5035048;28;20045;-74
2023/04/23 03:47:35;;;;;;;58.75;32.65;;;;;;;6.24;100.00;100691.28;5033830;28;20060;-73
2023/04/23 03:50:01;;;;;;;67.05;33.35;;;;;;;6.26;100.00;100689.34;5034818;28;20029;-73
2023/04/23 03:52:26;;;;;;;66.88;34.33;;;;;;;6.30;100.00;100692.59;5035185;28;20050;-73
2023/04/23 03:54:51;;;;;;;64.65;32.60;;;;;;;6.32;100.00;100694.16;5034540;28;20045;-74
2023/04/23 03:57:17;;;;;;;69.95;33.15;;;;;;;6.33;100.00;100692.38;5034888;28;20041;-75
2023/04/23 03:59:42;;;;;;;65.03;32.10;;;;;;;6.35;100.00;100695.75;5034536;28;20034;-74
2023/04/23 04:02:07;;;;;;;66.45;33.20;;;;;;;6.38;100.00;100698.16;5035153;28;20033;-74
2023/04/23 04:04:33;;;;;;;62.22;33.03;;;;;;;6.40;100.00;100692.75;5034524;28;20060;-74
2023/04/23 04:06:59;;;;;;;66.80;33.67;;;;;;;6.43;100.00;100696.00;5034518;28;20528;-74
2023/04/23 04:09:25;;;;;;;67.28;33.67;;;;;;;6.45;100.00;100690.59;5034697;28;20037;-74
2023/04/23 04:11:52;;;;;;;65.45;33.03;;;;;;;6.47;100.00;100693.97;5034619;28;20100;-76
2023/04/23 04:14:18;;;;;;;65.43;32.85;;;;;;;6.48;100.00;100687.75;5033729;28;20129;-73
2023/04/23 04:16:43;;;;;;;68.30;34.40;;;;;;;6.50;100.00;100686.66;5034727;28;20495;-73
2023/04/23 04:19:09;;;;;;;63.90;32.13;;;;;;;6.52;100.00;100689.19;5034247;28;20060;-75
2023/04/23 04:21:34;;;;;;;61.00;31.85;;;;;;;6.55;100.00;100690.75;5034184;28;20033;-74
2023/04/23 04:24:00;;;;;;;60.40;32.45;;;;;;;6.55;100.00;100688.09;5032894;28;20485;-74
2023/04/23 04:26:26;;;;;;;68.05;34.67;;;;;;;6.56;100.00;100688.00;5034487;28;20065;-74
2023/04/23 04:28:52;;;;;;;63.63;33.03;;;;;;;6.59;100.00;100695.69;5034363;28;20076;-73
2023/04/23 04:31:20;;;;;;;62.97;33.38;;;;;;;6.62;100.00;100684.03;5032439;28;20068;-74
2023/04/23 04:33:46;;;;;;;63.45;32.53;;;;;;;6.66;100.00;100681.03;5034273;28;20037;-73
2023/04/23 04:36:12;;;;;;;55.55;30.67;;;;;;;6.65;100.00;100689.09;5032848;28;20475;-73
2023/04/23 04:38:38;;;;;;;62.08;31.33;;;;;;;6.63;100.00;100683.94;5034064;28;20476;-73
2023/04/23 04:41:04;;;;;;;65.68;31.98;;;;;;;6.64;100.00;100687.41;5034021;28;20104;-74
2023/04/23 04:43:29;;;;;;;59.65;30.10;;;;;;;6.66;100.00;100682.84;5033525;28;20120;-74
2023/04/23 04:45:57;;;;;;;57.47;30.23;;;;;;;6.66;100.00;100683.69;5033975;28;20041;-75
2023/04/23 04:48:23;;;;;;;56.22;31.23;;;;;;;6.61;100.00;100677.06;5033950;28;20034;-74
2023/04/23 04:50:49;;;;;;;58.47;30.75;;;;;;;6.60;100.00;100685.94;5034255;28;20029;-74
2023/04/23 04:53:14;;;;;;;54.70;29.42;;;;;;;6.57;100.00;100679.13;5033633;28;20494;-74
2023/04/23 04:55:40;;;;;;;56.50;30.33;;;;;;;6.53;100.00;100680.28;5033977;28;20103;-73
2023/04/23 04:58:05;;;;;;;52.42;29.48;;;;;;;6.52;100.00;100690.03;5033748;28;20037;-74
2023/04/23 05:00:31;;;;;;;56.20;30.65;;;;;;;6.60;100.00;100689.44;5033929;28;20041;-73
2023/04/23 05:02:57;;;;;;;59.40;31.15;;;;;;;6.69;100.00;100691.38;5033873;28;20036;-73
2023/04/23 05:05:24;;;;;;;61.25;30.75;;;;;;;6.73;100.00;100697.25;5033756;28;20033;-74
2023/04/23 05:07:50;;;;;;;55.38;30.80;;;;;;;6.75;100.00;100700.66;5033102;28;20040;-73
2023/04/23 05:10:16;;;;;;;60.17;30.73;;;;;;;6.75;100.00;100694.50;5033550;28;20033;-74
2023/04/23 05:12:42;;;;;;;55.92;30.40;;;;;;;6.72;100.00;100690.31;5033081;28;20074;-74
2023/04/23 05:15:09;;;;;;;55.35;30.05;;;;;;;6.65;100.00;100689.94;5033776;28;20033;-74
2023/04/23 05:17:36;;;;;;;58.65;30.92;;;;;;;6.64;100.00;100693.56;5033388;28;20033;-74
2023/04/23 05:20:02;;;;;;;59.42;31.02;;;;;;;6.64;100.00;100682.13;5032992;28;20503;-74
2023/04/23 05:22:27;;;;;;;57.38;30.30;;;;;;;6.61;100.00;100691.13;5033013;28;20053;-74
2023/04/23 05:24:52;;;;;;;51.83;28.95;;;;;;;6.59;100.00;100677.19;5032325;28;20038;-74
2023/04/23 05:27:18;;;;;;;57.25;29.75;;;;;;;6.59;100.00;100679.81;5032422;28;20095;-73
2023/04/23 05:29:44;;;;;;;58.22;29.00;;;;;;;6.60;100.00;100685.94;5033321;28;20021;-74
2023/04/23 05:32:09;;;;;;;52.05;27.70;;;;;;;6.61;100.00;100688.47;5033412;28;20353;-74
2023/04/23 05:34:35;;;;;;;56.42;28.85;;;;;;;6.64;100.00;100685.63;5033690;28;20033;-74
2023/04/23 05:37:01;;;;;;;57.38;29.52;;;;;;;6.69;100.00;100691.38;5033430;28;20029;-78
2023/04/23 05:39:26;;;;;;;59.33;30.08;;;;;;;6.76;100.00;100688.25;5032958;28;20387;-73
2023/04/23 05:41:52;;;;;;;56.92;29.15;;;;;;;6.82;100.00;100680.72;5031942;28;20049;-73
2023/04/23 05:44:17;;;;;;;58.85;29.00;;;;;;;6.91;100.00;100679.13;5033291;28;20375;-73
2023/04/23 05:46:43;;;;;;;54.35;29.02;;;;;;;6.98;100.00;100693.56;5033072;28;20057;-73
2023/04/23 05:49:08;;;;;;;50.33;28.27;;;;;;;7.06;100.00;100690.31;5033117;28;20030;-73
2023/04/23 05:51:34;;;;;;;49.20;26.95;;;;;;;7.14;100.00;100680.00;5032876;28;20034;-74
2023/04/23 05:53:59;;;;;;;45.47;26.05;;;;;;;7.21;100.00;100678.56;5033023;28;20492;-74
2023/04/23 05:56:25;;;;;;;47.83;26.92;;;;;;;7.30;100.00;100686.72;5033323;28;20034;-73
2023/04/23 05:58:50;;;;;;;43.03;25.55;;;;;;;7.43;100.00;100681.31;5032995;28;20069;-73
2023/04/23 06:01:15;;;;;;;41.17;23.35;;;;;;;7.58;100.00;100680.06;5032862;28;20124;-73
2023/04/23 06:03:44;;;;;;;39.78;23.65;;;;;;;7.68;100.00;100681.00;5031536;28;20040;-73
2023/04/23 06:06:11;;;;;;;39.53;22.80;;;;;;;7.82;100.00;100692.28;5033094;28;20030;-75
2023/04/23 06:08:36;;;;;;;39.78;22.77;;;;;;;7.97;100.00;100687.53;5032921;28;20353;-74
2023/04/23 06:11:02;;;;;;;32.92;20.83;;;;;;;8.09;100.00;100684.75;5032383;28;20036;-73
2023/04/23 06:13:29;;;;;;;31.00;19.45;;;;;;;8.23;100.00;100683.59;5032328;28;20033;-75
2023/04/23 06:15:55;;;;;;;27.45;19.02;;;;;;;8.33;100.00;100675.72;5032699;28;20040;-73
2023/04/23 06:18:20;;;;;;;28.55;19.67;;;;;;;8.47;100.00;100671.94;5033012;28;20029;-73
2023/04/23 06:20:47;;;;;;;32.85;19.55;;;;;;;8.57;100.00;100662.22;5033226;28;20145;-73
2023/04/23 06:23:12;;;;;;;24.52;16.50;;;;;;;8.67;100.00;100654.31;5032617;28;20069;-73
2023/04/23 06:25:38;;;;;;;26.38;17.73;;;;;;;8.74;100.00;100657.28;5032956;28;20049;-73
2023/04/23 06:28:03;;;;;;;24.40;16.90;;;;;;;8.82;100.00;100660.97;5032790;28;20030;-73
2023/04/23 06:30:29;;;;;;;25.58;17.10;;;;;;;8.95;100.00;100652.78;5032707;28;20037;-73
2023/04/23 06:32:54;;;;;;;23.02;16.85;;;;;;;9.05;100.00;100652.84;5033031;28;20034;-73
2023/04/23 06:35:20;;;;;;;27.95;16.02;;;;;;;9.21;100.00;100652.34;5032450;28;20034;-73
2023/04/23 06:37:45;;;;;;;20.92;15.85;;;;;;;9.40;100.00;100648.88;5035763;28;20029;-73
2023/04/23 06:40:11;;;;;;;20.33;13.93;;;;;;;9.58;100.00;100650.88;5035292;28;20041;-73
2023/04/23 06:42:36;;;;;;;19.77;12.02;;;;;;;9.78;100.00;100647.28;5036649;28;20463;-73
2023/04/23 06:45:03;;;;;;;18.52;12.80;;;;;;;9.97;100.00;100649.13;5035122;28;20073;-73
2023/04/23 06:47:29;;;;;;;18.63;12.35;;;;;;;10.14;100.00;100634.25;5036773;28;20140;-73
2023/04/23 06:49:55;;;;;;;18.83;11.07;;;;;;;10.31;100.00;100634.53;5036718;28;20033;-73
2023/04/23 06:52:20;;;;;;;14.40;9.93;;;;;;;10.50;100.00;100633.69;5036041;28;20137;-73
2023/04/23 06:54:46;;;;;;;20.58;10.82;;;;;;;10.68;100.00;100629.28;5036262;28;20026;-73
2023/04/23 06:57:11;;;;;;;18.88;10.02;;;;;;;10.85;100.00;100634.84;5036157;28;20116;-74
2023/04/23 06:59:37;;;;;;;21.55;10.35;;;;;;;10.91;100.00;100640.44;5036593;28;20064;-73
2023/04/23 07:02:02;;;;;;;15.88;9.38;;;;;;;10.99;100.00;100631.72;5036206;28;20429;-73
2023/04/23 07:04:28;;;;;;;15.15;9.95;;;;;;;10.98;100.00;100630.00;5035753;28;20422;-74
2023/04/23 07:06:53;;;;;;;16.20;8.75;;;;;;;10.98;100.00;100626.53;5036044;28;20072;-73
2023/04/23 07:09:19;;;;;;;14.73;8.52;;;;;;;11.06;100.00;100627.47;5036042;28;20117;-74
2023/04/23 07:11:45;;;;;;;15.90;8.80;;;;;;;11.11;100.00;100625.19;5036674;28;20025;-73
2023/04/23 07:14:10;;;;;;;13.00;7.35;;;;;;;11.19;100.00;100623.63;5035807;28;20424;-74
2023/04/23 07:16:35;;;;;;;15.18;7.93;;;;;;;11.29;100.00;100622.56;5035958;28;20104;-74
2023/04/23 07:19:01;;;;;;;14.45;7.72;;;;;;;11.47;100.00;100625.25;5035188;28;20117;-74
2023/04/23 07:21:27;;;;;;;14.48;6.95;;;;;;;11.73;100.00;100621.84;5034364;28;20036;-73
2023/04/23 07:23:56;;;;;;;14.30;7.47;;;;;;;11.89;100.00;100618.50;5035276;28;20434;-74
2023/04/23 07:26:21;;;;;;;13.82;7.85;;;;;;;11.99;100.00;100613.16;5035529;28;20033;-74
2023/04/23 07:28:47;;;;;;;12.88;7.07;;;;;;;12.20;100.00;100603.97;5035129;28;20441;-73
2023/04/23 07:31:13;;;;;;;11.57;6.57;;;;;;;12.39;100.00;100611.78;5035561;28;20035;-73
2023/04/23 07:33:38;;;;;;;11.85;6.88;;;;;;;12.52;100.00;100595.34;5035182;28;20087;-74
2023/04/23 07:36:04;;;;;;;11.63;6.78;;;;;;;12.60;100.00;100598.06;5033762;28;20437;-74
2023/04/23 07:38:29;;;;;;;12.77;6.78;;;;;;;12.86;100.00;100605.19;5033872;28;20072;-73
2023/04/23 07:40:55;;;;;;;11.15;6.47;;;;;;;13.07;100.00;100601.28;5035449;28;20034;-73
2023/04/23 07:43:20;;;;;;;16.67;6.57;;;;;;;13.25;100.00;100598.50;5034711;28;20040;-74
2023/04/23 07:45:45;;;;;;;13.20;5.68;;;;;;;13.28;100.00;100604.34;5034122;28;20112;-74
2023/04/23 07:48:11;;;;;;;15.07;6.40;;;;;;;13.28;100.00;100598.19;5034106;28;20037;-73
2023/04/23 07:50:36;;;;;;;11.02;5.85;;;;;;;13.32;100.00;100603.03;5035440;28;20064;-74
2023/04/23 07:53:02;;;;;;;9.63;5.50;;;;;;;13.25;100.00;100604.69;5035130;28;20085;-74
2023/04/23 07:55:27;;;;;;;10.07;5.45;;;;;;;13.19;100.00;100590.13;5035362;28;20391;-74
2023/04/23 07:57:52;;;;;;;9.90;5.50;;;;;;;13.15;100.00;100591.47;5035400;28;20048;-73
2023/04/23 08:00:18;;;;;;;9.35;5.50;;;;;;;13.16;100.00;100597.63;5033726;28;20125;-74
2023/04/23 08:02:43;;;;;;;15.57;6.45;;;;;;;13.35;100.00;100593.91;5035001;28;20117;-73
2023/04/23 08:05:09;;;;;;;14.32;6.00;;;;;;;13.56;100.00;100590.75;5034907;28;20084;-73
2023/04/23 08:07:35;;;;;;;8.63;5.20;;;;;;;13.86;100.00;100586.59;5035228;28;20436;-73
2023/04/23 08:10:04;;;;;;;16.83;5.30;;;;;;;14.02;100.00;100591.13;5033623;28;20033;-72
2023/04/23 08:12:30;;;;;;;13.18;6.10;;;;;;;14.22;100.00;100577.41;5035223;28;20044;-72
2023/04/23 08:14:55;;;;;;;9.10;4.75;;;;;;;14.40;100.00;100590.59;5034656;28;20029;-73
2023/04/23 08:17:21;;;;;;;10.38;4.90;;;;;;;14.58;100.00;100580.47;5034677;28;20029;-74
2023/04/23 08:19:46;;;;;;;8.90;5.03;;;;;;;14.65;100.00;100580.69;5033738;28;20041;-72
2023/04/23 08:22:12;;;;;;;12.60;4.68;;;;;;;14.68;100.00;100580.34;5034671;28;20501;-73
2023/04/23 08:24:37;;;;;;;11.98;5.10;;;;;;;14.86;100.00;100580.09;5034451;28;20044;-73
2023/04/23 08:27:03;;;;;;;10.35;4.47;;;;;;;15.22;100.00;100579.59;5034758;28;20036;-71
2023/04/23 08:29:28;;;;;;;12.60;4.97;;;;;;;15.52;100.00;100580.59;5034767;28;20467;-73
2023/04/23 08:31:54;;;;;;;15.13;5.20;;;;;;;15.84;100.00;100578.72;5033437;28;20132;-72
2023/04/23 08:34:19;;;;;;;12.45;5.53;;;;;;;16.11;100.00;100581.00;5034285;28;20033;-73
2023/04/23 08:36:45;;;;;;;11.93;4.78;;;;;;;16.49;100.00;100580.97;5034371;28;20033;-72
2023/04/23 08:39:10;;;;;;;17.13;5.30;;;;;;;16.64;100.00;100584.50;5034513;28;20179;-72
2023/04/23 08:41:43;;;;;;;13.52;4.93;;;;;;;16.68;100.00;100587.66;5033948;28;20038;-72
2023/04/23 08:44:20;;;;;;;12.63;4.70;;;;;;;16.49;100.00;100594.41;5034892;28;20431;-73
2023/04/23 08:46:46;;;;;;;14.27;4.30;;;;;;;16.25;100.00;100596.31;5034122;28;20053;-73
2023/04/23 08:49:16;;;;;;;11.38;4.22;;;;;;;15.48;100.00;100597.19;5034471;28;20467;-73
2023/04/23 08:51:48;;;;;;;15.38;4.85;;;;;;;15.06;100.00;100593.94;5033882;28;20030;-72
2023/04/23 08:54:17;;;;;;;15.27;5.10;;;;;;;15.06;100.00;100593.94;5034235;28;20153;-73
2023/04/23 08:56:43;;;;;;;10.48;5.60;;;;;;;15.12;100.00;100595.91;5033931;28;20041;-73
2023/04/23 08:59:10;;;;;;;16.60;6.03;;;;;;;15.78;100.00;100587.50;5032685;28;20116;-72
2023/04/23 09:01:35;;;;;;;10.80;4.68;;;;;;;16.68;100.00;100587.66;5033900;28;20033;-72
2023/04/23 09:04:01;;;;;;;10.70;4.53;;;;;;;17.04;100.00;100585.06;5034016;28;20379;-72
2023/04/23 09:06:28;;;;;;;10.60;4.90;;;;;;;17.65;100.00;100585.75;5033555;28;20033;-73
2023/04/23 09:08:54;;;;;;;12.32;5.47;;;;;;;17.59;95.42;100585.47;5033688;28;20127;-73
2023/04/23 09:11:22;;;;;;;13.57;5.25;;;;;;;17.06;98.83;100595.63;5033696;28;20040;-73
2023/04/23 09:13:48;;;;;;;14.65;5.75;;;;;;;16.66;100.00;100576.25;5033792;28;20026;-73
2023/04/23 09:16:13;;;;;;;12.65;6.03;;;;;;;16.46;100.00;100581.34;5032099;28;20051;-73
2023/04/23 09:18:39;;;;;;;17.15;5.70;;;;;;;17.40;99.13;100591.47;5033564;28;20045;-73
2023/04/23 09:21:06;;;;;;;17.63;6.18;;;;;;;19.11;87.22;100566.25;5034040;28;20120;-73
2023/04/23 09:23:33;;;;;;;13.45;5.13;;;;;;;19.83;70.37;100572.88;5033652;28;20064;-74
2023/04/23 09:25:58;;;;;;;16.00;4.53;;;;;;;19.64;68.77;100573.66;5033359;28;20080;-74
2023/04/23 09:28:35;;;;;;;11.23;5.13;;;;;;;19.33;70.80;100561.53;5033566;28;20060;-73
2023/04/23 09:31:01;;;;;;;16.05;6.03;;;;;;;19.01;76.73;100567.47;5033855;28;20060;-73
2023/04/23 09:33:27;;;;;;;10.98;5.05;;;;;;;19.88;69.71;100564.16;5033241;28;20100;-71
2023/04/23 09:35:52;;;;;;;10.07;5.20;;;;;;;20.23;69.23;100567.47;5033683;28;20060;-73
2023/04/23 09:38:19;;;;;;;10.00;5.50;;;;;;;20.33;68.06;100558.94;5032986;28;20037;-72
2023/04/23 09:40:44;;;;;;;14.80;5.15;;;;;;;20.42;64.32;100551.44;5033169;28;20043;-73
2023/04/23 09:43:10;;;;;;;9.65;5.00;;;;;;;21.00;64.64;100560.63;5031528;28;20120;-73
2023/04/23 09:45:36;;;;;;;13.10;4.68;;;;;;;20.40;64.04;100565.16;5033000;28;20034;-73
2023/04/23 09:48:02;;;;;;;10.38;4.55;;;;;;;20.42;67.74;100554.97;5033115;28;20034;-72
2023/04/23 09:50:31;;;;;;;10.48;4.50;;;;;;;19.48;65.93;100551.44;5033149;28;20053;-72
2023/04/23 09:52:57;;;;;;;10.00;3.55;;;;;;;18.83;73.85;100551.81;5032782;28;20049;-73
2023/04/23 09:55:39;;;;;;;9.35;3.80;;;;;;;19.56;67.39;100545.00;5033171;28;20395;-72
2023/04/23 09:58:09;;;;;;;8.18;3.83;;;;;;;19.82;71.94;100544.22;5033540;28;20116;-72
2023/04/23 10:00:37;;;;;;;9.65;3.38;;;;;;;20.06;67.28;100537.38;5032850;28;20053;-71
2023/04/23 10:03:03;;;;;;;10.60;3.97;;;;;;;19.49;70.48;100536.88;5032920;28;20036;-73
2023/04/23 10:05:29;;;;;;;10.05;3.45;;;;;;;19.17;72.13;100533.09;5032899;28;20117;-71
2023/04/23 10:07:58;;;;;;;12.63;3.92;;;;;;;19.02;77.18;100534.09;5032868;28;20030;-73
2023/04/23 10:10:24;;;;;;;7.45;3.08;;;;;;;19.50;75.80;100532.34;5032311;28;20487;-73
2023/04/23 10:12:55;;;;;;;12.45;3.88;;;;;;;19.30;75.52;100533.13;5032871;28;20029;-72
2023/04/23 10:15:24;;;;;;;14.00;4.05;;;;;;;18.55;73.60;100537.56;5032790;28;20095;-73
2023/04/23 10:17:50;;;;;;;14.65;4.20;;;;;;;18.01;81.62;100531.84;5032577;28;20033;-72
2023/04/23 10:20:15;;;;;;;13.57;4.50;;;;;;;17.71;87.59;100540.06;5032798;28;20109;-72
2023/04/23 10:22:43;;;;;;;10.38;3.50;;;;;;;17.51;85.16;100542.56;5032753;28;20030;-73
2023/04/23 10:25:10;;;;;;;15.20;3.83;;;;;;;16.97;90.26;100526.88;5032974;28;20112;-73
2023/04/23 10:27:39;;;;;;;10.63;3.20;;;;;;;17.40;89.39;100530.44;5031800;28;20033;-74
2023/04/23 10:30:05;;;;;;;8.88;2.97;;;;;;;17.42;85.40;100533.78;5032932;28;20059;-72
2023/04/23 10:32:33;;;;;;;10.93;2.85;;;;;;;18.36;83.17;100518.38;5032705;28;20029;-73
2023/04/23 10:34:58;;;;;;;10.60;3.45;;;;;;;18.80;77.68;100524.44;5032512;28;20120;-73
2023/04/23 10:37:24;;;;;;;12.35;3.55;;;;;;;18.43;72.32;100518.44;5031133;28;20459;-73
2023/04/23 10:39:54;;;;;;;11.95;3.55;;;;;;;18.45;74.77;100516.38;5033001;28;20060;-73
2023/04/23 10:42:20;;;;;;;10.00;3.08;;;;;;;17.96;69.23;100513.59;5032541;28;20120;-72
2023/04/23 10:44:46;;;;;;;11.57;3.33;;;;;;;18.12;74.13;100507.09;5032409;28;20033;-73
2023/04/23 10:47:15;;;;;;;10.32;2.85;;;;;;;18.15;75.88;100505.84;5032780;28;20062;-73
2023/04/23 10:49:42;;;;;;;7.88;2.97;;;;;;;17.98;75.16;100503.44;5031038;28;20117;-72
2023/04/23 10:52:13;;;;;;;12.98;3.15;;;;;;;17.90;74.15;100492.84;5032128;28;20037;-72
2023/04/23 10:54:40;;;;;;;8.67;2.70;;;;;;;17.77;78.91;100498.91;5032740;28;20144;-73
2023/04/23 10:57:06;;;;;;;9.40;3.10;;;;;;;17.62;78.28;100485.53;5031350;28;20075;-71
2023/04/23 10:59:34;;;;;;;8.27;2.60;;;;;;;17.76;77.46;100477.59;5032441;28;20026;-72
2023/04/23 11:02:13;;;;;;;7.55;2.33;;;;;;;17.73;75.79;100477.97;5032200;28;20041;-72
2023/04/23 11:04:44;;;;;;;8.30;2.55;;;;;;;17.72;79.00;100469.09;5031871;28;20092;-75